Time;durP1;ratioP1;P1;durP2;ratioP2;P2;SDS_P1;SDS_P2;PMS_P1;PMS_P2;Temp;Humidity;BMP_temperature;BMP_pressure;BME280_temperature;BME280_humidity;BME280_pressure;Samples;Min_cycle;Max_cycle;Signal;HPM_P1;HPM_P2
2023/09/25 00:00:45;;;;;;;6.80;5.10;;;14.20;99.90;;;;;;5091136;28;20076;-58
2023/09/25 00:03:11;;;;;;;6.93;5.15;;;14.10;99.90;;;;;;5091274;28;20483;-59
2023/09/25 00:05:37;;;;;;;7.75;4.97;;;14.10;99.90;;;;;;5091792;28;20038;-59
2023/09/25 00:08:03;;;;;;;7.38;5.40;;;14.10;99.90;;;;;;5091085;28;20518;-59
2023/09/25 00:10:31;;;;;;;8.80;5.65;;;14.00;99.90;;;;;;5091379;28;20039;-58
2023/09/25 00:12:57;;;;;;;5.90;4.90;;;14.00;99.90;;;;;;5090768;28;20120;-58
2023/09/25 00:15:23;;;;;;;6.28;4.93;;;14.20;99.90;;;;;;5091418;28;20043;-59
2023/09/25 00:17:50;;;;;;;5.45;4.75;;;14.50;99.90;;;;;;5091222;28;20550;-58
2023/09/25 00:20:19;;;;;;;7.10;5.03;;;14.60;99.90;;;;;;5091156;28;20479;-58
2023/09/25 00:22:46;;;;;;;7.38;4.93;;;14.70;99.90;;;;;;5091316;28;20028;-58
2023/09/25 00:25:12;;;;;;;7.50;5.03;;;14.80;99.90;;;;;;5091090;28;20557;-59
2023/09/25 00:27:38;;;;;;;5.95;5.00;;;14.80;99.90;;;;;;5090931;28;20027;-58
2023/09/25 00:30:08;;;;;;;5.68;4.65;;;14.80;99.90;;;;;;5091016;28;20032;-58
2023/09/25 00:32:35;;;;;;;6.28;4.75;;;14.90;99.90;;;;;;5091701;28;20016;-59
2023/09/25 00:35:09;;;;;;;6.80;5.20;;;14.90;99.90;;;;;;5091159;28;20382;-59
2023/09/25 00:37:36;;;;;;;6.28;5.28;;;14.70;99.90;;;;;;5091299;28;20409;-59
2023/09/25 00:40:13;;;;;;;7.75;5.38;;;14.80;99.90;;;;;;5090853;28;20085;-59
2023/09/25 00:42:45;;;;;;;6.38;5.43;;;14.80;99.90;;;;;;5090601;28;20066;-58
2023/09/25 00:45:11;;;;;;;6.32;5.20;;;14.60;99.90;;;;;;5090825;28;20075;-58
2023/09/25 00:47:41;;;;;;;5.65;5.05;;;14.40;99.90;;;;;;5090764;28;20032;-59
2023/09/25 00:50:08;;;;;;;6.40;5.00;;;14.30;99.90;;;;;;5090997;28;20044;-58
2023/09/25 00:52:36;;;;;;;5.07;4.35;;;14.30;99.90;;;;;;5090959;28;20086;-59
2023/09/25 00:55:03;;;;;;;6.65;4.80;;;14.10;99.90;;;;;;5090810;28;20028;-59
2023/09/25 00:57:29;;;;;;;7.28;4.95;;;14.00;99.90;;;;;;5091017;28;20015;-59
2023/09/25 00:59:56;;;;;;;6.60;4.72;;;13.90;99.90;;;;;;5093146;28;20031;-59
2023/09/25 01:02:22;;;;;;;7.13;4.95;;;13.80;99.90;;;;;;5094853;28;20028;-59
2023/09/25 01:04:48;;;;;;;6.78;4.53;;;13.80;99.90;;;;;;5094680;28;20082;-59
2023/09/25 01:07:18;;;;;;;6.10;4.53;;;13.80;99.90;;;;;;5094629;28;20044;-58
2023/09/25 01:10:05;;;;;;;5.65;4.72;;;13.70;99.90;;;;;;5093501;28;20066;-59
2023/09/25 01:12:32;;;;;;;6.97;5.00;;;13.70;99.90;;;;;;5094622;28;20020;-59
2023/09/25 01:14:58;;;;;;;7.55;4.82;;;13.60;99.90;;;;;;5094642;28;20020;-59
2023/09/25 01:17:24;;;;;;;5.47;4.70;;;13.60;99.90;;;;;;5094425;28;20073;-59
2023/09/25 01:19:50;;;;;;;5.63;4.75;;;13.50;99.90;;;;;;5094437;28;20094;-59
2023/09/25 01:22:16;;;;;;;6.38;5.30;;;13.50;99.90;;;;;;5093643;28;20074;-59
2023/09/25 01:24:41;;;;;;;6.05;4.80;;;13.40;99.90;;;;;;5094331;28;20097;-58
2023/09/25 01:27:07;;;;;;;7.05;4.55;;;13.50;99.90;;;;;;5093995;28;20508;-59
2023/09/25 01:29:33;;;;;;;6.55;4.85;;;13.40;99.90;;;;;;5094222;28;20110;-59
2023/09/25 01:31:58;;;;;;;5.70;4.60;;;13.40;99.90;;;;;;5094648;28;20077;-59
2023/09/25 01:34:24;;;;;;;6.78;4.75;;;13.40;99.90;;;;;;5094399;28;20026;-59
2023/09/25 01:36:50;;;;;;;7.63;4.68;;;13.40;99.90;;;;;;5094176;28;20555;-59
2023/09/25 01:39:16;;;;;;;8.80;5.13;;;13.40;99.90;;;;;;5093980;28;20020;-59
2023/09/25 01:41:42;;;;;;;5.82;5.00;;;13.40;99.90;;;;;;5093850;28;20032;-59
2023/09/25 01:44:07;;;;;;;9.18;4.88;;;13.30;99.90;;;;;;5094363;28;20028;-59
2023/09/25 01:46:33;;;;;;;8.50;5.30;;;13.20;99.90;;;;;;5093892;28;20036;-58
2023/09/25 01:48:59;;;;;;;5.32;4.80;;;13.20;99.90;;;;;;5093877;28;20439;-58
2023/09/25 01:51:25;;;;;;;6.78;5.00;;;13.40;99.90;;;;;;5093980;28;20028;-59
2023/09/25 01:53:51;;;;;;;6.47;4.90;;;13.70;99.90;;;;;;5093935;28;20020;-59
2023/09/25 01:56:17;;;;;;;8.48;5.43;;;13.90;99.90;;;;;;5093511;28;20115;-59
2023/09/25 01:58:44;;;;;;;7.03;5.28;;;13.90;99.90;;;;;;5094202;28;20096;-58
2023/09/25 02:01:10;;;;;;;5.55;4.57;;;14.00;99.90;;;;;;5093677;28;20036;-59
2023/09/25 02:03:36;;;;;;;5.93;4.68;;;14.00;99.90;;;;;;5093576;28;20020;-58
2023/09/25 02:06:03;;;;;;;7.78;5.00;;;14.00;99.90;;;;;;5092719;28;20119;-59
2023/09/25 02:08:29;;;;;;;4.93;4.40;;;14.10;99.90;;;;;;5093263;28;20067;-59
2023/09/25 02:10:55;;;;;;;5.57;4.43;;;14.10;99.90;;;;;;5092201;28;20020;-59
2023/09/25 02:13:21;;;;;;;6.30;4.72;;;14.00;99.90;;;;;;5093466;28;20027;-58
2023/09/25 02:15:47;;;;;;;5.22;4.63;;;14.00;99.90;;;;;;5093519;28;20028;-58
2023/09/25 02:18:13;;;;;;;5.15;4.65;;;14.10;99.90;;;;;;5093281;28;20082;-59
2023/09/25 02:20:39;;;;;;;5.57;4.88;;;13.90;99.90;;;;;;5093636;28;20028;-59
2023/09/25 02:23:06;;;;;;;8.05;4.90;;;13.70;99.90;;;;;;5093142;28;20036;-59
2023/09/25 02:25:32;;;;;;;5.95;5.07;;;13.50;99.90;;;;;;5092816;28;20115;-59
2023/09/25 02:27:57;;;;;;;7.40;4.53;;;13.30;99.90;;;;;;5093269;28;20150;-59
2023/09/25 02:30:23;;;;;;;5.55;4.97;;;13.20;99.90;;;;;;5093435;28;20039;-59
2023/09/25 02:32:49;;;;;;;7.68;5.15;;;13.00;99.90;;;;;;5093144;28;20025;-59
2023/09/25 02:35:15;;;;;;;7.57;5.05;;;12.80;99.90;;;;;;5093024;28;20023;-59
2023/09/25 02:37:41;;;;;;;6.38;4.90;;;12.80;99.90;;;;;;5092946;28;20020;-58
2023/09/25 02:40:09;;;;;;;6.60;4.70;;;12.80;99.90;;;;;;5092880;28;20046;-59
2023/09/25 02:42:35;;;;;;;7.60;5.25;;;12.70;99.90;;;;;;5092773;28;20020;-59
2023/09/25 02:45:01;;;;;;;7.60;5.30;;;12.70;99.90;;;;;;5092856;28;20032;-59
2023/09/25 02:47:26;;;;;;;5.97;5.20;;;12.70;99.90;;;;;;5093040;28;20040;-59
2023/09/25 02:49:52;;;;;;;5.45;4.90;;;12.70;99.90;;;;;;5092590;28;20036;-59
2023/09/25 02:52:18;;;;;;;7.13;5.05;;;12.70;99.90;;;;;;5092950;28;20375;-59
2023/09/25 02:54:43;;;;;;;6.20;5.15;;;12.70;99.90;;;;;;5092480;28;20068;-59
2023/09/25 02:57:09;;;;;;;7.78;5.40;;;12.60;99.90;;;;;;5092632;28;20024;-59
2023/09/25 02:59:35;;;;;;;6.22;4.93;;;12.70;99.90;;;;;;5092884;28;20055;-58
2023/09/25 03:02:02;;;;;;;6.28;5.10;;;12.70;99.90;;;;;;5092268;28;20044;-59
2023/09/25 03:04:28;;;;;;;7.15;5.18;;;12.70;99.90;;;;;;5092379;28;20429;-59
2023/09/25 03:06:53;;;;;;;7.30;5.05;;;12.70;99.90;;;;;;5092395;28;20520;-59
2023/09/25 03:09:19;;;;;;;8.48;4.75;;;12.70;99.90;;;;;;5092154;28;20032;-59
2023/09/25 03:11:45;;;;;;;6.53;5.38;;;12.70;99.90;;;;;;5092409;28;20024;-59
2023/09/25 03:14:11;;;;;;;7.53;5.07;;;12.60;99.90;;;;;;5091009;28;20475;-58
2023/09/25 03:16:37;;;;;;;9.30;4.68;;;12.60;99.90;;;;;;5092612;28;20145;-58
2023/09/25 03:19:02;;;;;;;6.25;4.85;;;12.60;99.90;;;;;;5092114;28;20553;-59
2023/09/25 03:21:29;;;;;;;6.85;5.20;;;12.50;99.90;;;;;;5091675;28;20547;-58
2023/09/25 03:23:54;;;;;;;5.50;4.95;;;12.50;99.90;;;;;;5092598;28;20116;-58
2023/09/25 03:26:20;;;;;;;7.95;5.03;;;12.60;99.90;;;;;;5092286;28;20506;-58
2023/09/25 03:28:48;;;;;;;6.90;4.90;;;12.80;99.90;;;;;;5091866;28;20394;-58
2023/09/25 03:31:13;;;;;;;6.00;4.78;;;13.10;99.90;;;;;;5091936;28;20028;-58
2023/09/25 03:33:39;;;;;;;7.88;4.70;;;13.20;99.90;;;;;;5092220;28;20519;-58
2023/09/25 03:36:06;;;;;;;7.15;5.50;;;13.30;99.90;;;;;;5091287;28;20397;-58
2023/09/25 03:38:33;;;;;;;7.35;5.18;;;13.30;99.90;;;;;;5092000;28;20028;-58
2023/09/25 03:40:59;;;;;;;6.22;4.95;;;13.40;99.90;;;;;;5091709;28;20032;-59
2023/09/25 03:43:25;;;;;;;6.55;4.70;;;13.40;99.90;;;;;;5091635;28;20389;-59
2023/09/25 03:45:51;;;;;;;5.43;4.93;;;13.40;99.90;;;;;;5092018;28;20040;-59
2023/09/25 03:48:16;;;;;;;6.32;4.75;;;13.50;99.90;;;;;;5091156;28;20039;-58
2023/09/25 03:50:42;;;;;;;9.35;5.18;;;13.40;99.90;;;;;;5091589;28;20035;-58
2023/09/25 03:53:08;;;;;;;6.78;4.90;;;13.40;99.90;;;;;;5091607;28;20047;-58
2023/09/25 03:55:33;;;;;;;7.60;5.32;;;13.40;99.90;;;;;;5090324;28;20083;-59
2023/09/25 03:57:59;;;;;;;6.43;5.40;;;13.00;99.90;;;;;;5091533;28;20111;-59
2023/09/25 04:00:26;;;;;;;7.25;5.38;;;12.80;99.90;;;;;;5091918;28;20483;-59
2023/09/25 04:02:53;;;;;;;6.75;5.63;;;12.70;99.90;;;;;;5091174;28;20068;-59
2023/09/25 04:05:19;;;;;;;6.80;5.18;;;12.60;99.90;;;;;;5091410;28;20502;-59
2023/09/25 04:07:45;;;;;;;6.90;5.40;;;12.50;99.90;;;;;;5091225;28;20047;-59
2023/09/25 04:10:11;;;;;;;6.13;5.47;;;12.40;99.90;;;;;;5091391;28;20480;-58
2023/09/25 04:12:37;;;;;;;7.68;5.30;;;12.30;99.90;;;;;;5091344;28;20024;-59
2023/09/25 04:15:13;;;;;;;7.38;5.28;;;12.30;99.90;;;;;;5091553;28;20057;-59
2023/09/25 04:17:40;;;;;;;6.43;5.55;;;12.20;99.90;;;;;;5091471;28;20081;-59
2023/09/25 04:20:17;;;;;;;6.47;5.20;;;12.10;99.90;;;;;;5090833;28;20024;-59
2023/09/25 04:22:47;;;;;;;6.60;5.00;;;12.10;99.90;;;;;;5091223;28;20110;-58
2023/09/25 04:25:18;;;;;;;8.98;5.10;;;12.10;99.90;;;;;;5091434;28;20039;-59
2023/09/25 04:27:48;;;;;;;7.55;5.38;;;12.10;99.90;;;;;;5091678;28;20046;-59
2023/09/25 04:30:17;;;;;;;5.90;4.68;;;12.00;99.90;;;;;;5091173;28;20051;-59
2023/09/25 04:32:44;;;;;;;7.05;5.03;;;12.10;99.90;;;;;;5091153;28;20077;-58
2023/09/25 04:35:12;;;;;;;7.63;5.10;;;12.00;99.90;;;;;;5092322;28;20397;-59
2023/09/25 04:37:38;;;;;;;7.88;5.50;;;12.00;99.90;;;;;;5095872;28;20406;-59
2023/09/25 04:42:46;;;;;;;5.70;5.20;;;12.00;99.90;;;;;;5095167;28;20028;-58
2023/09/25 04:45:13;;;;;;;7.85;5.18;;;12.00;99.90;;;;;;5095057;28;20028;-59
2023/09/25 04:47:43;;;;;;;6.60;5.22;;;12.00;99.90;;;;;;5095170;28;20036;-59
2023/09/25 04:50:11;;;;;;;5.43;4.93;;;12.00;99.90;;;;;;5094947;28;20027;-59
2023/09/25 04:52:41;;;;;;;6.20;5.20;;;11.90;99.90;;;;;;5095025;28;20494;-59
2023/09/25 04:55:10;;;;;;;5.68;5.07;;;12.00;99.90;;;;;;5094991;28;20422;-58
2023/09/25 04:57:37;;;;;;;7.20;5.07;;;12.00;99.90;;;;;;5094991;28;20146;-59
2023/09/25 05:00:24;;;;;;;6.82;5.00;;;12.00;99.90;;;;;;5094879;28;20447;-59
2023/09/25 05:02:50;;;;;;;7.97;5.30;;;11.90;99.90;;;;;;5095098;28;20487;-59
2023/09/25 05:05:17;;;;;;;7.00;5.40;;;12.20;99.90;;;;;;5094483;28;20490;-59
2023/09/25 05:07:46;;;;;;;9.32;4.68;;;12.50;99.90;;;;;;5094712;28;20166;-59
2023/09/25 05:10:14;;;;;;;6.63;4.82;;;12.70;99.90;;;;;;5094637;28;20486;-59
2023/09/25 05:12:40;;;;;;;8.20;4.90;;;12.70;99.90;;;;;;5094546;28;20024;-58
2023/09/25 05:15:10;;;;;;;8.05;5.28;;;12.80;99.90;;;;;;5094234;28;20390;-58
2023/09/25 05:17:37;;;;;;;7.95;4.47;;;12.80;99.90;;;;;;5094703;28;20020;-59
2023/09/25 05:20:10;;;;;;;8.43;4.88;;;12.70;99.90;;;;;;5092711;28;20146;-59
2023/09/25 05:22:40;;;;;;;7.00;5.03;;;12.70;99.90;;;;;;5094220;28;20031;-59
2023/09/25 05:25:07;;;;;;;6.90;4.68;;;12.80;99.90;;;;;;5094288;28;20067;-58
2023/09/25 05:27:34;;;;;;;7.90;5.07;;;12.80;99.90;;;;;;5094399;28;20012;-59
2023/09/25 05:30:01;;;;;;;7.47;5.30;;;12.90;99.90;;;;;;5094577;28;20517;-59
2023/09/25 05:32:27;;;;;;;8.55;5.35;;;12.70;99.90;;;;;;5094060;28;20082;-57
2023/09/25 05:34:52;;;;;;;8.75;5.57;;;12.60;99.90;;;;;;5094351;28;20495;-58
2023/09/25 05:37:18;;;;;;;7.63;5.88;;;12.40;99.90;;;;;;5094027;28;20482;-59
2023/09/25 05:39:44;;;;;;;7.18;5.70;;;12.20;99.90;;;;;;5093543;28;20490;-58
2023/09/25 05:42:10;;;;;;;7.15;5.43;;;12.10;99.90;;;;;;5093869;28;20028;-57
2023/09/25 05:44:35;;;;;;;8.70;5.45;;;12.00;99.90;;;;;;5093877;28;20036;-57
2023/09/25 05:47:02;;;;;;;10.02;5.50;;;12.00;99.90;;;;;;5092206;28;20031;-58
2023/09/25 05:49:28;;;;;;;5.75;5.20;;;12.00;99.90;;;;;;5094124;28;20573;-58
2023/09/25 05:51:54;;;;;;;7.95;5.45;;;11.90;99.90;;;;;;5093907;28;20107;-56
2023/09/25 05:54:20;;;;;;;8.25;5.70;;;12.00;99.90;;;;;;5093841;28;20028;-57
2023/09/25 05:56:49;;;;;;;7.10;5.53;;;12.00;99.90;;;;;;5093739;28;20021;-58
2023/09/25 05:59:16;;;;;;;8.70;5.57;;;12.00;99.90;;;;;;5093260;28;20036;-57
2023/09/25 06:01:42;;;;;;;9.90;5.13;;;12.00;99.90;;;;;;5093360;28;20032;-58
2023/09/25 06:04:12;;;;;;;6.72;5.00;;;11.90;99.90;;;;;;5093857;28;20036;-58
2023/09/25 06:06:40;;;;;;;9.68;5.97;;;12.00;99.90;;;;;;5093396;28;20040;-57
2023/09/25 06:09:08;;;;;;;8.75;5.55;;;12.00;99.90;;;;;;5093650;28;20414;-59
2023/09/25 06:11:38;;;;;;;6.05;5.45;;;12.00;99.90;;;;;;5093583;28;20401;-58
2023/09/25 06:14:04;;;;;;;9.15;5.85;;;11.90;99.90;;;;;;5093466;28;20031;-58
2023/09/25 06:16:29;;;;;;;5.80;5.20;;;12.00;99.90;;;;;;5092716;28;20036;-58
2023/09/25 06:18:55;;;;;;;6.78;5.60;;;12.00;99.90;;;;;;5092184;28;20565;-58
2023/09/25 06:21:21;;;;;;;6.47;5.55;;;11.90;99.90;;;;;;5093222;28;20024;-57
2023/09/25 06:23:49;;;;;;;8.02;5.35;;;11.90;99.90;;;;;;5092933;28;20036;-57
2023/09/25 06:26:15;;;;;;;9.57;5.70;;;11.90;99.90;;;;;;5093579;28;20059;-59
2023/09/25 06:28:42;;;;;;;7.78;5.75;;;11.90;99.90;;;;;;5093182;28;20058;-55
2023/09/25 06:31:08;;;;;;;7.75;6.47;;;12.00;99.90;;;;;;5092924;28;20027;-57
2023/09/25 06:33:34;;;;;;;8.23;6.18;;;12.00;99.90;;;;;;5093298;28;20498;-58
2023/09/25 06:36:00;;;;;;;7.30;5.85;;;12.00;99.90;;;;;;5093313;28;20047;-58
2023/09/25 06:38:26;;;;;;;7.68;6.43;;;12.10;99.90;;;;;;5093070;28;20161;-58
2023/09/25 06:40:51;;;;;;;6.32;5.55;;;12.10;99.90;;;;;;5093144;28;20063;-56
2023/09/25 06:43:17;;;;;;;7.00;5.60;;;12.30;99.90;;;;;;5092938;28;20551;-59
2023/09/25 06:45:43;;;;;;;7.50;5.72;;;12.60;99.90;;;;;;5092630;28;20055;-58
2023/09/25 06:48:09;;;;;;;7.88;5.80;;;12.90;99.90;;;;;;5092183;28;20052;-58
2023/09/25 06:50:35;;;;;;;7.25;6.20;;;13.00;99.90;;;;;;5092260;28;20099;-59
2023/09/25 06:53:02;;;;;;;9.35;5.65;;;13.30;99.90;;;;;;5092713;28;20063;-58
2023/09/25 06:55:28;;;;;;;16.73;6.40;;;13.60;99.90;;;;;;5092737;28;20045;-58
2023/09/25 06:57:53;;;;;;;15.88;6.22;;;13.70;99.90;;;;;;5092107;28;20073;-58
2023/09/25 07:00:19;;;;;;;19.88;6.10;;;13.80;99.90;;;;;;5090794;28;20035;-57
2023/09/25 07:02:45;;;;;;;18.63;6.32;;;13.90;99.90;;;;;;5092776;28;20024;-58
2023/09/25 07:05:11;;;;;;;17.80;7.13;;;13.90;99.90;;;;;;5092074;28;20356;-58
2023/09/25 07:07:37;;;;;;;11.88;6.20;;;14.00;99.90;;;;;;5092723;28;20522;-58
2023/09/25 07:10:09;;;;;;;12.05;6.18;;;14.10;99.90;;;;;;5092392;28;20055;-58
2023/09/25 07:12:35;;;;;;;10.80;6.15;;;14.00;99.90;;;;;;5092072;28;20044;-58
2023/09/25 07:15:02;;;;;;;9.88;5.90;;;13.80;99.90;;;;;;5092006;28;20028;-58
2023/09/25 07:17:29;;;;;;;8.57;5.35;;;13.70;99.90;;;;;;5092426;28;20020;-59
2023/09/25 07:19:55;;;;;;;6.07;5.45;;;13.70;99.90;;;;;;5092137;28;20081;-58
2023/09/25 07:22:22;;;;;;;8.88;5.55;;;13.60;99.90;;;;;;5092036;28;20103;-56
2023/09/25 07:24:49;;;;;;;8.70;5.88;;;13.70;99.90;;;;;;5091983;28;20040;-57
2023/09/25 07:27:15;;;;;;;7.13;5.88;;;13.80;99.90;;;;;;5092267;28;20024;-57
2023/09/25 07:29:48;;;;;;;7.10;5.28;;;13.80;99.90;;;;;;5091528;28;20574;-59
2023/09/25 07:32:15;;;;;;;17.15;6.63;;;13.90;99.90;;;;;;5092482;28;20032;-66
2023/09/25 07:34:42;;;;;;;11.00;5.90;;;;;;;;;;5091508;28;20032;-67
2023/09/25 07:37:08;;;;;;;10.65;5.28;;;14.10;99.90;;;;;;5091878;28;20043;-65
2023/09/25 07:39:38;;;;;;;9.05;5.20;;;14.10;99.90;;;;;;5091819;28;20024;-65
2023/09/25 07:42:04;;;;;;;11.35;5.88;;;14.20;99.90;;;;;;5092180;28;20402;-66
2023/09/25 07:44:33;;;;;;;9.60;5.40;;;14.30;99.90;;;;;;5090194;28;20020;-67
2023/09/25 07:47:00;;;;;;;6.90;5.53;;;14.40;99.90;;;;;;5091751;28;20074;-66
2023/09/25 07:49:29;;;;;;;11.13;6.45;;;14.50;99.90;;;;;;5091661;28;20464;-66
2023/09/25 07:52:00;;;;;;;12.70;5.75;;;14.60;99.90;;;;;;5092030;28;20514;-65
2023/09/25 07:54:26;;;;;;;11.23;6.30;;;14.70;99.90;;;;;;5091494;28;20081;-65
2023/09/25 07:56:52;;;;;;;10.35;5.80;;;14.80;99.90;;;;;;5091640;28;20036;-67
2023/09/25 07:59:25;;;;;;;11.23;6.22;;;14.90;99.90;;;;;;5091340;28;20024;-67
2023/09/25 08:01:50;;;;;;;19.87;6.30;;;15.00;99.90;;;;;;5091715;28;20024;-66
2023/09/25 08:04:17;;;;;;;10.50;5.63;;;15.20;99.90;;;;;;5091472;28;20284;-65
2023/09/25 08:06:43;;;;;;;14.50;5.82;;;15.30;99.90;;;;;;5091450;28;20468;-65
2023/09/25 08:09:09;;;;;;;15.27;5.72;;;15.40;99.90;;;;;;5090509;28;20036;-63
2023/09/25 08:11:34;;;;;;;11.02;5.32;;;15.60;99.90;;;;;;5091402;28;20027;-64
2023/09/25 08:14:00;;;;;;;9.45;5.10;;;15.60;99.90;;;;;;5091463;28;20021;-64
2023/09/25 08:16:27;;;;;;;9.80;5.15;;;16.10;99.90;;;;;;5091566;28;20031;-64
2023/09/25 08:18:52;;;;;;;6.72;5.18;;;16.20;99.90;;;;;;5091441;28;20016;-64
2023/09/25 08:21:19;;;;;;;14.20;5.50;;;16.30;99.90;;;;;;5091548;28;20039;-64
2023/09/25 08:23:45;;;;;;;11.85;5.45;;;16.50;99.90;;;;;;5090719;28;20031;-64
2023/09/25 08:26:12;;;;;;;8.15;5.07;;;16.70;99.90;;;;;;5090526;28;20028;-65
2023/09/25 08:28:38;;;;;;;8.82;4.70;;;16.70;99.90;;;;;;5090975;28;20104;-64
2023/09/25 08:31:03;;;;;;;11.27;5.15;;;17.00;99.90;;;;;;5090265;28;20139;-64
2023/09/25 08:33:29;;;;;;;27.13;6.80;;;17.30;99.90;;;;;;5091114;28;20028;-64
2023/09/25 08:35:55;;;;;;;24.63;6.45;;;17.60;99.90;;;;;;5091119;28;20530;-64
2023/09/25 08:38:20;;;;;;;13.85;5.18;;;17.70;99.90;;;;;;5091096;28;20024;-64
2023/09/25 08:40:49;;;;;;;10.02;5.40;;;17.80;99.90;;;;;;5091201;28;20235;-64
2023/09/25 08:43:16;;;;;;;12.13;5.30;;;18.00;99.90;;;;;;5091160;28;20027;-63
2023/09/25 08:45:43;;;;;;;13.30;5.78;;;18.10;99.90;;;;;;5091129;28;20486;-64
2023/09/25 08:48:15;;;;;;;14.05;5.82;;;18.10;99.90;;;;;;5090948;28;20062;-64
2023/09/25 08:50:41;;;;;;;13.68;6.40;;;18.30;99.90;;;;;;5091225;28;20028;-64
2023/09/25 08:53:07;;;;;;;11.35;6.60;;;18.30;99.90;;;;;;5091113;28;20025;-64
2023/09/25 08:55:33;;;;;;;15.85;7.55;;;18.10;99.90;;;;;;5090554;28;20489;-65
2023/09/25 08:58:00;;;;;;;12.60;6.30;;;18.10;99.90;;;;;;5091029;28;20025;-64
2023/09/25 09:00:29;;;;;;;13.82;6.32;;;18.00;99.90;;;;;;5090792;28;20093;-64
2023/09/25 09:02:55;;;;;;;14.77;7.10;;;18.10;99.90;;;;;;5090794;28;20506;-64
2023/09/25 09:05:20;;;;;;;12.85;7.28;;;18.30;99.90;;;;;;5090743;28;20032;-64
2023/09/25 09:08:05;;;;;;;11.35;6.90;;;18.30;99.90;;;;;;5090990;28;20460;-64
2023/09/25 09:10:32;;;;;;;15.98;7.40;;;18.40;99.90;;;;;;5090600;28;20035;-64
2023/09/25 09:12:58;;;;;;;9.82;7.47;;;18.50;99.90;;;;;;5090890;28;20020;-64
2023/09/25 09:15:29;;;;;;;13.80;7.55;;;18.50;99.90;;;;;;5090743;28;20036;-64
2023/09/25 09:17:58;;;;;;;14.82;7.32;;;18.70;99.90;;;;;;5090532;28;20056;-64
2023/09/25 09:20:36;;;;;;;15.48;7.38;;;18.70;99.90;;;;;;5091988;28;20028;-63
2023/09/25 09:23:02;;;;;;;14.90;7.80;;;18.60;99.90;;;;;;5094667;28;20094;-64
2023/09/25 09:25:29;;;;;;;13.85;6.93;;;18.80;99.90;;;;;;5094365;28;20067;-64
2023/09/25 09:27:58;;;;;;;13.63;7.10;;;18.80;99.90;;;;;;5094758;28;20452;-64
2023/09/25 09:30:25;;;;;;;11.82;6.70;;;18.70;99.90;;;;;;5094587;28;20020;-64
2023/09/25 09:32:51;;;;;;;11.18;6.78;;;18.60;99.90;;;;;;5093943;28;20036;-65
2023/09/25 09:35:24;;;;;;;12.52;6.57;;;18.70;99.90;;;;;;5093918;28;20123;-65
2023/09/25 09:37:57;;;;;;;10.77;6.57;;;18.80;99.90;;;;;;5094409;28;20028;-65
2023/09/25 09:40:25;;;;;;;10.88;7.07;;;18.80;99.90;;;;;;5093501;28;20432;-64
2023/09/25 09:42:52;;;;;;;9.55;6.65;;;18.80;99.90;;;;;;5093281;28;20387;-65
2023/09/25 09:45:21;;;;;;;11.07;6.43;;;18.90;99.90;;;;;;5094080;28;20028;-64
2023/09/25 09:47:50;;;;;;;9.73;6.07;;;19.00;99.90;;;;;;5093972;28;20028;-65
2023/09/25 09:50:26;;;;;;;11.35;6.03;;;19.10;99.90;;;;;;5093971;28;20232;-65
2023/09/25 09:52:52;;;;;;;9.98;5.68;;;19.10;99.90;;;;;;5094412;28;20024;-64
2023/09/25 09:55:21;;;;;;;11.27;5.97;;;19.30;99.90;;;;;;5093466;28;20020;-65
2023/09/25 09:57:49;;;;;;;10.65;6.22;;;19.30;99.90;;;;;;5094146;28;20047;-64
2023/09/25 10:00:15;;;;;;;11.60;6.07;;;19.50;99.90;;;;;;5093809;28;20158;-65
2023/09/25 10:02:43;;;;;;;7.72;6.07;;;19.60;99.90;;;;;;5093736;28;20016;-64
2023/09/25 10:05:13;;;;;;;9.65;6.03;;;19.70;99.90;;;;;;5093523;28;20032;-65
2023/09/25 10:08:10;;;;;;;9.80;5.85;;;19.90;99.90;;;;;;5093615;28;20055;-65
2023/09/25 10:10:38;;;;;;;10.15;5.90;;;20.00;99.90;;;;;;5091609;28;20505;-64
2023/09/25 10:13:09;;;;;;;11.00;6.03;;;20.10;99.90;;;;;;5093585;28;20024;-65
2023/09/25 10:15:36;;;;;;;8.02;5.60;;;20.30;99.90;;;;;;5093529;28;20024;-65
2023/09/25 10:18:02;;;;;;;10.88;5.72;;;20.30;99.90;;;;;;5093778;28;20026;-64
2023/09/25 10:20:37;;;;;;;9.25;5.32;;;20.50;99.90;;;;;;5093279;28;20028;-65
2023/09/25 10:23:06;;;;;;;9.07;5.38;;;20.70;99.90;;;;;;5093036;28;20020;-65
2023/09/25 10:25:44;;;;;;;7.22;5.18;;;20.80;99.90;;;;;;5093361;28;20104;-65
2023/09/25 10:28:35;;;;;;;9.82;5.75;;;20.90;99.90;;;;;;5092754;28;20020;-65
2023/09/25 10:31:03;;;;;;;9.45;5.40;;;20.90;99.90;;;;;;5070866;28;20033;-65
2023/09/25 10:33:33;;;;;;;8.13;5.38;;;20.90;99.90;;;;;;5070124;28;20043;-65
2023/09/25 10:36:04;;;;;;;7.63;5.15;;;21.00;99.90;;;;;;5070416;28;20037;-65
2023/09/25 10:38:33;;;;;;;7.72;5.18;;;21.00;99.90;;;;;;5070035;28;20033;-65
2023/09/25 10:41:06;;;;;;;9.75;6.03;;;21.00;99.90;;;;;;5070528;28;20548;-65
2023/09/25 10:43:34;;;;;;;10.65;5.30;;;21.10;99.90;;;;;;5070806;28;20032;-65
2023/09/25 10:46:01;;;;;;;9.25;5.88;;;21.10;99.90;;;;;;5053535;28;20058;-65
2023/09/25 10:48:27;;;;;;;8.52;5.55;;;21.20;99.90;;;;;;5069852;28;20037;-65
2023/09/25 10:50:54;;;;;;;7.93;5.22;;;21.20;99.90;;;;;;5070662;28;20029;-65
2023/09/25 10:53:21;;;;;;;7.85;5.07;;;21.30;99.90;;;;;;5070090;28;20486;-64
2023/09/25 10:55:47;;;;;;;8.43;4.85;;;21.40;99.90;;;;;;5070081;28;20048;-65
2023/09/25 10:58:14;;;;;;;9.13;4.90;;;21.50;99.90;;;;;;5070143;28;20086;-65
2023/09/25 11:00:41;;;;;;;10.27;5.53;;;21.60;99.90;;;;;;5053801;28;20120;-65
2023/09/25 11:03:08;;;;;;;11.32;5.55;;;21.60;99.90;;;;;;5069917;28;20024;-66
2023/09/25 11:05:36;;;;;;;7.85;5.45;;;21.60;99.90;;;;;;5069749;28;20063;-64
2023/09/25 11:08:06;;;;;;;8.95;5.20;;;21.50;99.90;;;;;;5070799;28;20036;-65
2023/09/25 11:10:37;;;;;;;9.23;4.95;;;21.50;99.90;;;;;;5072213;28;20441;-65
2023/09/25 11:13:03;;;;;;;10.68;5.00;;;21.50;99.90;;;;;;5072125;28;20020;-65
2023/09/25 11:15:35;;;;;;;6.70;4.78;;;21.60;99.90;;;;;;5072106;28;20034;-65
2023/09/25 11:18:00;;;;;;;8.18;5.10;;;21.70;99.90;;;;;;5071982;28;20449;-65
2023/09/25 11:20:30;;;;;;;8.65;4.95;;;21.90;99.90;;;;;;5070369;28;20024;-65
2023/09/25 11:23:15;;;;;;;8.02;4.70;;;22.00;99.90;;;;;;5071976;28;20056;-65
2023/09/25 11:25:43;;;;;;;8.13;5.03;;;21.90;99.90;;;;;;5072362;28;20043;-65
2023/09/25 11:28:16;;;;;;;8.20;5.22;;;21.80;99.90;;;;;;5071775;28;20028;-65
2023/09/25 11:30:46;;;;;;;7.03;5.47;;;21.70;99.90;;;;;;5071984;28;20028;-66
2023/09/25 11:33:15;;;;;;;8.07;5.20;;;21.80;99.90;;;;;;5071675;28;20533;-65
2023/09/25 11:35:41;;;;;;;10.23;5.53;;;22.10;99.90;;;;;;5071282;28;20483;-65
2023/09/25 11:38:15;;;;;;;8.75;5.03;;;22.30;99.90;;;;;;5071964;28;20020;-65
2023/09/25 11:40:41;;;;;;;9.52;5.35;;;22.30;99.90;;;;;;5071745;28;20498;-65
2023/09/25 11:43:07;;;;;;;9.52;5.57;;;22.40;99.90;;;;;;5071593;28;20063;-65
2023/09/25 11:45:34;;;;;;;7.75;4.85;;;22.70;99.90;;;;;;5071635;28;20494;-64
2023/09/25 11:48:01;;;;;;;9.45;5.07;;;22.80;99.90;;;;;;5085749;28;20046;-65
2023/09/25 11:50:27;;;;;;;8.05;5.25;;;22.90;99.90;;;;;;5091987;28;20042;-65
2023/09/25 11:52:52;;;;;;;5.65;4.65;;;23.00;99.90;;;;;;5091930;28;20034;-65
2023/09/25 11:55:19;;;;;;;7.38;4.88;;;23.20;99.90;;;;;;5091539;28;20106;-65
2023/09/25 11:57:46;;;;;;;8.52;5.25;;;23.30;99.90;;;;;;5091715;28;20052;-65
2023/09/25 12:00:18;;;;;;;6.80;4.70;;;23.30;99.90;;;;;;5091451;28;20024;-65
2023/09/25 12:02:46;;;;;;;7.45;4.68;;;23.20;99.90;;;;;;5091782;28;20066;-65
2023/09/25 12:05:12;;;;;;;5.95;4.45;;;23.30;99.90;;;;;;5090998;28;20563;-64
2023/09/25 12:07:38;;;;;;;9.52;5.07;;;23.40;99.90;;;;;;5091479;28;20036;-65
2023/09/25 12:10:08;;;;;;;6.50;5.10;;;23.40;99.90;;;;;;5091847;28;20153;-64
2023/09/25 12:12:37;;;;;;;6.90;4.65;;;23.50;99.90;;;;;;5091460;28;20020;-65
2023/09/25 12:15:03;;;;;;;7.30;4.90;;;23.40;99.90;;;;;;5091534;28;20036;-65
2023/09/25 12:17:33;;;;;;;5.95;4.43;;;23.30;99.90;;;;;;5091110;28;20069;-65
2023/09/25 12:20:11;;;;;;;11.00;5.20;;;23.30;99.90;;;;;;5090977;28;20039;-65
2023/09/25 12:22:39;;;;;;;7.13;4.50;;;23.30;99.90;;;;;;5091203;28;20024;-65
2023/09/25 12:25:07;;;;;;;6.25;4.47;;;23.40;99.90;;;;;;5091549;28;20043;-65
2023/09/25 12:27:33;;;;;;;7.15;4.63;;;23.50;99.90;;;;;;5091300;28;20498;-65
2023/09/25 12:29:59;;;;;;;8.70;4.50;;;23.50;99.90;;;;;;5090804;28;20035;-65
2023/09/25 12:32:24;;;;;;;7.47;4.47;;;23.60;99.90;;;;;;5091384;28;20121;-65
2023/09/25 12:34:50;;;;;;;7.60;4.50;;;23.60;99.90;;;;;;5090587;28;20482;-65
2023/09/25 12:37:16;;;;;;;10.75;4.88;;;23.70;99.90;;;;;;5091182;28;20483;-66
2023/09/25 12:39:41;;;;;;;8.32;4.38;;;23.70;99.90;;;;;;5090897;28;20020;-66
2023/09/25 12:42:07;;;;;;;7.57;4.75;;;23.90;99.90;;;;;;5090865;28;20486;-65
2023/09/25 12:44:33;;;;;;;10.05;4.70;;;24.00;99.90;;;;;;5089958;28;20028;-66
2023/09/25 12:46:58;;;;;;;6.72;4.43;;;24.10;99.90;;;;;;5090968;28;20048;-64
2023/09/25 12:49:24;;;;;;;6.38;4.50;;;24.20;99.90;;;;;;5091262;28;20023;-66